sensor_id;sensor_type;location;lat;lon;timestamp;P1;durP1;ratioP1;P2;durP2;ratioP2
24096;SDS011;12275;48.550;12.132;2023-05-01T00:00:47;7.20;;;6.03;;
24096;SDS011;12275;48.550;12.132;2023-05-01T00:03:14;8.63;;;6.60;;
24096;SDS011;12275;48.550;12.132;2023-05-01T00:05:41;7.37;;;6.03;;
24096;SDS011;12275;48.550;12.132;2023-05-01T00:08:08;7.40;;;6.13;;
24096;SDS011;12275;48.550;12.132;2023-05-01T00:10:34;12.27;;;6.57;;
24096;SDS011;12275;48.550;12.132;2023-05-01T00:13:00;8.03;;;6.27;;
24096;SDS011;12275;48.550;12.132;2023-05-01T00:15:26;8.97;;;5.83;;
24096;SDS011;12275;48.550;12.132;2023-05-01T00:17:53;7.83;;;6.17;;
24096;SDS011;12275;48.550;12.132;2023-05-01T00:20:19;7.73;;;6.47;;
24096;SDS011;12275;48.550;12.132;2023-05-01T00:22:45;8.73;;;5.80;;
24096;SDS011;12275;48.550;12.132;2023-05-01T00:25:11;7.13;;;5.90;;
24096;SDS011;12275;48.550;12.132;2023-05-01T00:27:37;7.93;;;6.23;;
24096;SDS011;12275;48.550;12.132;2023-05-01T00:30:03;10.33;;;6.40;;
24096;SDS011;12275;48.550;12.132;2023-05-01T00:32:29;7.53;;;6.57;;
24096;SDS011;12275;48.550;12.132;2023-05-01T00:34:55;8.03;;;6.40;;
24096;SDS011;12275;48.550;12.132;2023-05-01T00:37:22;6.30;;;5.63;;
24096;SDS011;12275;48.550;12.132;2023-05-01T00:39:48;7.47;;;5.67;;
24096;SDS011;12275;48.550;12.132;2023-05-01T00:42:14;9.90;;;6.13;;
24096;SDS011;12275;48.550;12.132;2023-05-01T00:44:40;7.60;;;5.93;;
24096;SDS011;12275;48.550;12.132;2023-05-01T00:47:06;8.20;;;6.07;;
24096;SDS011;12275;48.550;12.132;2023-05-01T00:49:32;12.27;;;6.20;;
24096;SDS011;12275;48.550;12.132;2023-05-01T00:51:58;7.17;;;6.07;;
24096;SDS011;12275;48.550;12.132;2023-05-01T00:54:25;7.70;;;5.93;;
24096;SDS011;12275;48.550;12.132;2023-05-01T00:56:52;9.17;;;5.97;;
24096;SDS011;12275;48.550;12.132;2023-05-01T00:59:18;10.07;;;6.43;;
24096;SDS011;12275;48.550;12.132;2023-05-01T01:01:44;7.20;;;6.13;;
24096;SDS011;12275;48.550;12.132;2023-05-01T01:04:11;8.17;;;5.70;;
24096;SDS011;12275;48.550;12.132;2023-05-01T01:12:01;10.77;;;6.13;;
24096;SDS011;12275;48.550;12.132;2023-05-01T01:17:17;7.88;;;6.20;;
24096;SDS011;12275;48.550;12.132;2023-05-01T01:22:14;10.40;;;5.63;;
24096;SDS011;12275;48.550;12.132;2023-05-01T01:35:33;6.00;;;5.50;;
24096;SDS011;12275;48.550;12.132;2023-05-01T01:38:15;8.60;;;5.67;;
24096;SDS011;12275;48.550;12.132;2023-05-01T01:41:02;9.27;;;5.90;;
24096;SDS011;12275;48.550;12.132;2023-05-01T01:43:30;10.37;;;6.40;;
24096;SDS011;12275;48.550;12.132;2023-05-01T01:46:01;7.67;;;5.70;;
24096;SDS011;12275;48.550;12.132;2023-05-01T01:48:32;6.73;;;6.13;;
24096;SDS011;12275;48.550;12.132;2023-05-01T01:50:59;9.10;;;6.47;;
24096;SDS011;12275;48.550;12.132;2023-05-01T01:53:27;7.63;;;5.93;;
24096;SDS011;12275;48.550;12.132;2023-05-01T01:55:55;6.80;;;5.43;;
24096;SDS011;12275;48.550;12.132;2023-05-01T01:58:22;6.17;;;5.57;;
24096;SDS011;12275;48.550;12.132;2023-05-01T02:00:50;8.17;;;5.87;;
24096;SDS011;12275;48.550;12.132;2023-05-01T02:03:17;6.43;;;5.30;;
24096;SDS011;12275;48.550;12.132;2023-05-01T02:05:44;8.67;;;5.90;;
24096;SDS011;12275;48.550;12.132;2023-05-01T02:08:11;8.27;;;5.87;;
24096;SDS011;12275;48.550;12.132;2023-05-01T02:10:39;9.73;;;6.10;;
24096;SDS011;12275;48.550;12.132;2023-05-01T02:13:06;6.10;;;5.50;;
24096;SDS011;12275;48.550;12.132;2023-05-01T02:15:32;6.67;;;5.53;;
24096;SDS011;12275;48.550;12.132;2023-05-01T02:18:01;10.00;;;6.20;;
24096;SDS011;12275;48.550;12.132;2023-05-01T02:20:29;7.90;;;6.17;;
24096;SDS011;12275;48.550;12.132;2023-05-01T02:22:55;9.83;;;6.27;;
24096;SDS011;12275;48.550;12.132;2023-05-01T02:25:22;7.10;;;6.20;;
24096;SDS011;12275;48.550;12.132;2023-05-01T02:28:34;8.17;;;6.43;;
24096;SDS011;12275;48.550;12.132;2023-05-01T02:30:35;7.40;;;6.10;;
24096;SDS011;12275;48.550;12.132;2023-05-01T02:33:01;7.73;;;6.73;;
24096;SDS011;12275;48.550;12.132;2023-05-01T02:35:28;11.73;;;6.30;;
24096;SDS011;12275;48.550;12.132;2023-05-01T02:37:54;7.80;;;5.93;;
24096;SDS011;12275;48.550;12.132;2023-05-01T02:40:20;8.63;;;5.73;;
24096;SDS011;12275;48.550;12.132;2023-05-01T02:42:46;8.13;;;6.63;;
24096;SDS011;12275;48.550;12.132;2023-05-01T02:45:16;8.63;;;6.37;;
24096;SDS011;12275;48.550;12.132;2023-05-01T02:47:43;8.83;;;6.07;;
24096;SDS011;12275;48.550;12.132;2023-05-01T02:50:10;7.30;;;5.73;;
24096;SDS011;12275;48.550;12.132;2023-05-01T02:52:37;8.70;;;6.50;;
24096;SDS011;12275;48.550;12.132;2023-05-01T02:55:03;9.97;;;6.90;;
24096;SDS011;12275;48.550;12.132;2023-05-01T02:57:31;9.00;;;6.50;;
24096;SDS011;12275;48.550;12.132;2023-05-01T02:59:57;10.57;;;6.67;;
24096;SDS011;12275;48.550;12.132;2023-05-01T03:02:23;7.13;;;6.37;;
24096;SDS011;12275;48.550;12.132;2023-05-01T03:04:49;7.53;;;6.73;;
24096;SDS011;12275;48.550;12.132;2023-05-01T03:07:15;11.07;;;6.70;;
24096;SDS011;12275;48.550;12.132;2023-05-01T03:09:41;9.97;;;6.83;;
24096;SDS011;12275;48.550;12.132;2023-05-01T03:12:07;6.97;;;6.17;;
24096;SDS011;12275;48.550;12.132;2023-05-01T03:14:33;9.63;;;6.60;;
24096;SDS011;12275;48.550;12.132;2023-05-01T03:16:59;10.07;;;7.20;;
24096;SDS011;12275;48.550;12.132;2023-05-01T03:19:25;9.93;;;6.63;;
24096;SDS011;12275;48.550;12.132;2023-05-01T03:21:51;8.87;;;7.07;;
24096;SDS011;12275;48.550;12.132;2023-05-01T03:24:17;9.50;;;6.60;;
24096;SDS011;12275;48.550;12.132;2023-05-01T03:26:43;8.37;;;7.30;;
24096;SDS011;12275;48.550;12.132;2023-05-01T03:29:09;7.77;;;6.43;;
24096;SDS011;12275;48.550;12.132;2023-05-01T03:31:37;14.67;;;7.33;;
24096;SDS011;12275;48.550;12.132;2023-05-01T03:34:03;12.07;;;7.27;;
24096;SDS011;12275;48.550;12.132;2023-05-01T03:36:29;9.77;;;6.93;;
24096;SDS011;12275;48.550;12.132;2023-05-01T03:38:57;8.53;;;7.60;;
24096;SDS011;12275;48.550;12.132;2023-05-01T03:41:23;12.30;;;7.77;;
24096;SDS011;12275;48.550;12.132;2023-05-01T03:43:49;13.73;;;7.33;;
24096;SDS011;12275;48.550;12.132;2023-05-01T03:46:16;10.07;;;8.10;;
24096;SDS011;12275;48.550;12.132;2023-05-01T03:48:42;8.60;;;7.13;;
24096;SDS011;12275;48.550;12.132;2023-05-01T03:51:08;10.97;;;7.63;;
24096;SDS011;12275;48.550;12.132;2023-05-01T03:53:34;10.87;;;7.80;;
24096;SDS011;12275;48.550;12.132;2023-05-01T03:56:00;10.97;;;8.17;;
24096;SDS011;12275;48.550;12.132;2023-05-01T03:58:28;10.97;;;8.00;;
24096;SDS011;12275;48.550;12.132;2023-05-01T04:00:54;9.77;;;7.70;;
24096;SDS011;12275;48.550;12.132;2023-05-01T04:03:24;10.03;;;7.47;;
24096;SDS011;12275;48.550;12.132;2023-05-01T04:05:50;9.50;;;7.60;;
24096;SDS011;12275;48.550;12.132;2023-05-01T04:08:17;9.53;;;8.10;;
24096;SDS011;12275;48.550;12.132;2023-05-01T04:10:43;11.73;;;7.90;;
24096;SDS011;12275;48.550;12.132;2023-05-01T04:13:09;10.13;;;7.87;;
24096;SDS011;12275;48.550;12.132;2023-05-01T04:15:36;10.07;;;7.87;;
24096;SDS011;12275;48.550;12.132;2023-05-01T04:18:02;13.20;;;8.23;;
24096;SDS011;12275;48.550;12.132;2023-05-01T04:20:28;14.53;;;8.17;;
24096;SDS011;12275;48.550;12.132;2023-05-01T04:22:55;9.33;;;7.87;;
24096;SDS011;12275;48.550;12.132;2023-05-01T04:25:21;10.43;;;8.27;;
24096;SDS011;12275;48.550;12.132;2023-05-01T04:27:47;10.87;;;7.83;;
24096;SDS011;12275;48.550;12.132;2023-05-01T04:30:13;10.73;;;7.90;;
24096;SDS011;12275;48.550;12.132;2023-05-01T04:32:39;11.47;;;7.80;;
24096;SDS011;12275;48.550;12.132;2023-05-01T04:35:05;10.97;;;8.03;;
24096;SDS011;12275;48.550;12.132;2023-05-01T04:37:31;13.30;;;8.30;;
24096;SDS011;12275;48.550;12.132;2023-05-01T04:39:59;15.00;;;8.20;;
24096;SDS011;12275;48.550;12.132;2023-05-01T04:42:29;14.07;;;8.33;;
24096;SDS011;12275;48.550;12.132;2023-05-01T04:44:55;11.00;;;8.23;;
24096;SDS011;12275;48.550;12.132;2023-05-01T04:47:21;13.20;;;8.60;;
24096;SDS011;12275;48.550;12.132;2023-05-01T04:49:47;11.90;;;8.57;;
24096;SDS011;12275;48.550;12.132;2023-05-01T04:52:13;10.13;;;7.73;;
24096;SDS011;12275;48.550;12.132;2023-05-01T04:54:39;13.03;;;8.43;;
24096;SDS011;12275;48.550;12.132;2023-05-01T04:57:05;12.17;;;7.97;;
24096;SDS011;12275;48.550;12.132;2023-05-01T04:59:31;14.50;;;8.70;;
24096;SDS011;12275;48.550;12.132;2023-05-01T05:01:57;12.37;;;8.63;;
24096;SDS011;12275;48.550;12.132;2023-05-01T05:04:23;14.90;;;8.87;;
24096;SDS011;12275;48.550;12.132;2023-05-01T05:06:50;13.57;;;9.10;;
24096;SDS011;12275;48.550;12.132;2023-05-01T05:09:16;12.20;;;8.70;;
24096;SDS011;12275;48.550;12.132;2023-05-01T05:11:42;14.07;;;8.53;;
24096;SDS011;12275;48.550;12.132;2023-05-01T05:14:08;11.07;;;8.93;;
24096;SDS011;12275;48.550;12.132;2023-05-01T05:16:34;15.03;;;9.30;;
24096;SDS011;12275;48.550;12.132;2023-05-01T05:19:00;13.37;;;8.70;;
24096;SDS011;12275;48.550;12.132;2023-05-01T05:21:27;10.83;;;7.83;;
24096;SDS011;12275;48.550;12.132;2023-05-01T05:23:53;11.20;;;7.77;;
24096;SDS011;12275;48.550;12.132;2023-05-01T05:26:19;12.13;;;8.17;;
24096;SDS011;12275;48.550;12.132;2023-05-01T05:28:45;12.13;;;8.80;;
24096;SDS011;12275;48.550;12.132;2023-05-01T05:31:11;13.50;;;8.40;;
24096;SDS011;12275;48.550;12.132;2023-05-01T05:33:37;11.07;;;8.40;;
24096;SDS011;12275;48.550;12.132;2023-05-01T05:36:03;20.50;;;8.87;;
24096;SDS011;12275;48.550;12.132;2023-05-01T05:38:30;10.10;;;7.67;;
24096;SDS011;12275;48.550;12.132;2023-05-01T05:40:56;13.33;;;8.13;;
24096;SDS011;12275;48.550;12.132;2023-05-01T05:43:23;11.27;;;7.90;;
24096;SDS011;12275;48.550;12.132;2023-05-01T05:45:49;8.20;;;7.27;;
24096;SDS011;12275;48.550;12.132;2023-05-01T05:48:15;10.07;;;7.97;;
24096;SDS011;12275;48.550;12.132;2023-05-01T05:50:41;10.97;;;7.73;;
24096;SDS011;12275;48.550;12.132;2023-05-01T05:53:07;10.93;;;7.80;;
24096;SDS011;12275;48.550;12.132;2023-05-01T05:55:33;12.93;;;8.03;;
24096;SDS011;12275;48.550;12.132;2023-05-01T05:58:00;13.43;;;8.60;;
24096;SDS011;12275;48.550;12.132;2023-05-01T06:00:26;9.83;;;8.20;;
24096;SDS011;12275;48.550;12.132;2023-05-01T06:02:52;11.07;;;7.90;;
24096;SDS011;12275;48.550;12.132;2023-05-01T06:05:18;12.03;;;8.47;;
24096;SDS011;12275;48.550;12.132;2023-05-01T06:07:44;10.07;;;7.90;;
24096;SDS011;12275;48.550;12.132;2023-05-01T06:10:10;8.23;;;7.37;;
24096;SDS011;12275;48.550;12.132;2023-05-01T06:12:36;14.07;;;10.47;;
24096;SDS011;12275;48.550;12.132;2023-05-01T06:15:03;12.43;;;8.33;;
24096;SDS011;12275;48.550;12.132;2023-05-01T06:17:29;12.43;;;8.40;;
24096;SDS011;12275;48.550;12.132;2023-05-01T06:19:55;9.57;;;7.33;;
24096;SDS011;12275;48.550;12.132;2023-05-01T06:22:21;8.13;;;7.13;;
24096;SDS011;12275;48.550;12.132;2023-05-01T06:24:48;12.27;;;7.63;;
24096;SDS011;12275;48.550;12.132;2023-05-01T06:27:14;8.13;;;6.70;;
24096;SDS011;12275;48.550;12.132;2023-05-01T06:29:40;9.93;;;6.90;;
24096;SDS011;12275;48.550;12.132;2023-05-01T06:32:06;8.30;;;6.07;;
24096;SDS011;12275;48.550;12.132;2023-05-01T06:34:32;10.70;;;6.03;;
24096;SDS011;12275;48.550;12.132;2023-05-01T06:36:58;13.30;;;5.90;;
24096;SDS011;12275;48.550;12.132;2023-05-01T06:39:24;6.63;;;5.53;;
24096;SDS011;12275;48.550;12.132;2023-05-01T06:41:50;8.63;;;6.00;;
24096;SDS011;12275;48.550;12.132;2023-05-01T06:44:16;11.70;;;5.87;;
24096;SDS011;12275;48.550;12.132;2023-05-01T06:46:42;10.13;;;5.53;;
24096;SDS011;12275;48.550;12.132;2023-05-01T06:49:08;7.95;;;5.40;;
24096;SDS011;12275;48.550;12.132;2023-05-01T06:51:34;6.50;;;5.40;;
24096;SDS011;12275;48.550;12.132;2023-05-01T06:54:00;13.85;;;6.10;;
24096;SDS011;12275;48.550;12.132;2023-05-01T06:56:26;10.07;;;5.88;;
24096;SDS011;12275;48.550;12.132;2023-05-01T06:58:52;5.32;;;4.82;;
24096;SDS011;12275;48.550;12.132;2023-05-01T07:01:18;5.97;;;5.18;;
24096;SDS011;12275;48.550;12.132;2023-05-01T07:03:44;7.05;;;5.00;;
24096;SDS011;12275;48.550;12.132;2023-05-01T07:06:10;5.22;;;4.72;;
24096;SDS011;12275;48.550;12.132;2023-05-01T07:08:36;6.97;;;5.40;;
24096;SDS011;12275;48.550;12.132;2023-05-01T07:11:02;8.23;;;5.68;;
24096;SDS011;12275;48.550;12.132;2023-05-01T07:13:28;8.23;;;5.85;;
24096;SDS011;12275;48.550;12.132;2023-05-01T07:15:54;19.45;;;9.02;;
24096;SDS011;12275;48.550;12.132;2023-05-01T07:18:20;9.02;;;5.00;;
24096;SDS011;12275;48.550;12.132;2023-05-01T07:20:46;7.95;;;5.07;;
24096;SDS011;12275;48.550;12.132;2023-05-01T07:23:14;7.68;;;4.70;;
24096;SDS011;12275;48.550;12.132;2023-05-01T07:25:40;6.70;;;5.00;;
24096;SDS011;12275;48.550;12.132;2023-05-01T07:28:06;5.10;;;4.60;;
24096;SDS011;12275;48.550;12.132;2023-05-01T07:30:33;9.20;;;5.18;;
24096;SDS011;12275;48.550;12.132;2023-05-01T07:33:00;8.15;;;4.68;;
24096;SDS011;12275;48.550;12.132;2023-05-01T07:35:26;7.72;;;5.00;;
24096;SDS011;12275;48.550;12.132;2023-05-01T07:37:52;6.60;;;4.93;;
24096;SDS011;12275;48.550;12.132;2023-05-01T07:40:19;6.80;;;4.57;;
24096;SDS011;12275;48.550;12.132;2023-05-01T07:42:45;15.38;;;8.90;;
24096;SDS011;12275;48.550;12.132;2023-05-01T07:45:11;10.23;;;6.53;;
24096;SDS011;12275;48.550;12.132;2023-05-01T07:47:36;6.10;;;4.70;;
24096;SDS011;12275;48.550;12.132;2023-05-01T07:50:03;8.82;;;4.47;;
24096;SDS011;12275;48.550;12.132;2023-05-01T07:52:29;7.68;;;4.63;;
24096;SDS011;12275;48.550;12.132;2023-05-01T07:54:55;7.25;;;5.13;;
24096;SDS011;12275;48.550;12.132;2023-05-01T07:57:21;7.82;;;4.60;;
24096;SDS011;12275;48.550;12.132;2023-05-01T07:59:52;7.90;;;4.53;;
24096;SDS011;12275;48.550;12.132;2023-05-01T08:02:18;7.25;;;4.43;;
24096;SDS011;12275;48.550;12.132;2023-05-01T08:04:44;6.57;;;4.40;;
24096;SDS011;12275;48.550;12.132;2023-05-01T08:07:12;9.63;;;4.72;;
24096;SDS011;12275;48.550;12.132;2023-05-01T08:09:38;8.75;;;4.97;;
24096;SDS011;12275;48.550;12.132;2023-05-01T08:12:04;7.05;;;4.75;;
24096;SDS011;12275;48.550;12.132;2023-05-01T08:14:30;8.93;;;4.85;;
24096;SDS011;12275;48.550;12.132;2023-05-01T08:16:56;5.47;;;4.82;;
24096;SDS011;12275;48.550;12.132;2023-05-01T08:19:22;7.75;;;4.78;;
24096;SDS011;12275;48.550;12.132;2023-05-01T08:21:48;6.57;;;4.35;;
24096;SDS011;12275;48.550;12.132;2023-05-01T08:24:14;5.60;;;4.95;;
24096;SDS011;12275;48.550;12.132;2023-05-01T08:26:40;6.70;;;5.40;;
24096;SDS011;12275;48.550;12.132;2023-05-01T08:29:06;7.90;;;5.35;;
24096;SDS011;12275;48.550;12.132;2023-05-01T08:31:32;9.73;;;5.03;;
24096;SDS011;12275;48.550;12.132;2023-05-01T08:34:01;6.00;;;4.57;;
24096;SDS011;12275;48.550;12.132;2023-05-01T08:36:27;6.70;;;5.20;;
24096;SDS011;12275;48.550;12.132;2023-05-01T08:38:55;8.88;;;5.38;;
24096;SDS011;12275;48.550;12.132;2023-05-01T08:41:21;6.70;;;5.32;;
24096;SDS011;12275;48.550;12.132;2023-05-01T08:43:47;5.30;;;4.55;;
24096;SDS011;12275;48.550;12.132;2023-05-01T08:46:57;7.72;;;5.13;;
24096;SDS011;12275;48.550;12.132;2023-05-01T08:49:03;8.25;;;5.15;;
24096;SDS011;12275;48.550;12.132;2023-05-01T08:51:30;5.85;;;5.00;;
24096;SDS011;12275;48.550;12.132;2023-05-01T08:53:57;6.03;;;5.10;;
24096;SDS011;12275;48.550;12.132;2023-05-01T08:56:24;5.80;;;5.18;;
24096;SDS011;12275;48.550;12.132;2023-05-01T08:58:51;23.77;;;5.65;;
24096;SDS011;12275;48.550;12.132;2023-05-01T09:01:17;6.88;;;4.93;;
24096;SDS011;12275;48.550;12.132;2023-05-01T09:03:44;10.35;;;4.60;;
24096;SDS011;12275;48.550;12.132;2023-05-01T09:06:11;5.57;;;4.32;;
24096;SDS011;12275;48.550;12.132;2023-05-01T09:08:37;7.72;;;5.40;;
24096;SDS011;12275;48.550;12.132;2023-05-01T09:11:03;9.43;;;5.07;;
24096;SDS011;12275;48.550;12.132;2023-05-01T09:13:30;17.67;;;5.30;;
24096;SDS011;12275;48.550;12.132;2023-05-01T09:15:56;9.15;;;5.30;;
24096;SDS011;12275;48.550;12.132;2023-05-01T09:18:22;11.43;;;5.38;;
24096;SDS011;12275;48.550;12.132;2023-05-01T09:20:48;8.45;;;5.50;;
24096;SDS011;12275;48.550;12.132;2023-05-01T09:23:14;8.95;;;6.20;;
24096;SDS011;12275;48.550;12.132;2023-05-01T09:25:40;9.15;;;6.13;;
24096;SDS011;12275;48.550;12.132;2023-05-01T09:28:07;10.25;;;6.72;;
24096;SDS011;12275;48.550;12.132;2023-05-01T09:30:36;7.90;;;6.57;;
24096;SDS011;12275;48.550;12.132;2023-05-01T09:33:13;11.40;;;6.55;;
24096;SDS011;12275;48.550;12.132;2023-05-01T09:35:49;8.27;;;6.10;;
24096;SDS011;12275;48.550;12.132;2023-05-01T09:38:16;7.35;;;6.15;;
24096;SDS011;12275;48.550;12.132;2023-05-01T09:40:42;8.90;;;6.32;;
24096;SDS011;12275;48.550;12.132;2023-05-01T09:43:08;9.63;;;7.07;;
24096;SDS011;12275;48.550;12.132;2023-05-01T09:45:34;14.43;;;7.50;;
24096;SDS011;12275;48.550;12.132;2023-05-01T09:48:07;11.68;;;8.75;;
24096;SDS011;12275;48.550;12.132;2023-05-01T09:50:34;19.40;;;7.97;;
24096;SDS011;12275;48.550;12.132;2023-05-01T09:53:01;34.20;;;9.18;;
24096;SDS011;12275;48.550;12.132;2023-05-01T09:55:28;9.45;;;7.13;;
24096;SDS011;12275;48.550;12.132;2023-05-01T09:57:54;14.32;;;7.55;;
24096;SDS011;12275;48.550;12.132;2023-05-01T10:00:22;10.98;;;7.50;;
24096;SDS011;12275;48.550;12.132;2023-05-01T10:02:49;12.02;;;8.20;;
24096;SDS011;12275;48.550;12.132;2023-05-01T10:05:16;13.43;;;8.65;;
24096;SDS011;12275;48.550;12.132;2023-05-01T10:07:54;30.63;;;9.63;;
24096;SDS011;12275;48.550;12.132;2023-05-01T10:10:24;13.90;;;9.05;;
24096;SDS011;12275;48.550;12.132;2023-05-01T10:12:50;11.13;;;9.00;;
24096;SDS011;12275;48.550;12.132;2023-05-01T10:15:16;15.95;;;9.27;;
24096;SDS011;12275;48.550;12.132;2023-05-01T10:17:43;22.20;;;10.43;;
24096;SDS011;12275;48.550;12.132;2023-05-01T10:20:10;40.25;;;10.07;;
24096;SDS011;12275;48.550;12.132;2023-05-01T10:22:36;9.88;;;7.60;;
24096;SDS011;12275;48.550;12.132;2023-05-01T10:25:02;11.57;;;6.63;;
24096;SDS011;12275;48.550;12.132;2023-05-01T10:27:29;11.20;;;6.97;;
24096;SDS011;12275;48.550;12.132;2023-05-01T10:29:55;16.52;;;7.85;;
24096;SDS011;12275;48.550;12.132;2023-05-01T10:32:21;8.85;;;7.13;;
24096;SDS011;12275;48.550;12.132;2023-05-01T10:34:51;13.70;;;7.88;;
24096;SDS011;12275;48.550;12.132;2023-05-01T10:37:28;11.70;;;7.93;;
24096;SDS011;12275;48.550;12.132;2023-05-01T10:39:55;11.02;;;8.23;;
24096;SDS011;12275;48.550;12.132;2023-05-01T10:42:22;9.60;;;7.78;;
24096;SDS011;12275;48.550;12.132;2023-05-01T10:44:48;8.95;;;7.10;;
24096;SDS011;12275;48.550;12.132;2023-05-01T10:47:47;7.90;;;7.20;;
24096;SDS011;12275;48.550;12.132;2023-05-01T10:50:12;11.15;;;6.93;;
24096;SDS011;12275;48.550;12.132;2023-05-01T10:53:25;8.15;;;7.00;;
24096;SDS011;12275;48.550;12.132;2023-05-01T10:55:35;10.82;;;8.02;;
24096;SDS011;12275;48.550;12.132;2023-05-01T10:58:01;9.65;;;7.25;;
24096;SDS011;12275;48.550;12.132;2023-05-01T11:00:28;8.25;;;7.20;;
24096;SDS011;12275;48.550;12.132;2023-05-01T11:03:39;7.90;;;7.10;;
24096;SDS011;12275;48.550;12.132;2023-05-01T11:08:28;16.47;;;7.03;;
24096;SDS011;12275;48.550;12.132;2023-05-01T11:10:55;9.25;;;7.93;;
24096;SDS011;12275;48.550;12.132;2023-05-01T11:16:39;9.88;;;7.90;;
24096;SDS011;12275;48.550;12.132;2023-05-01T11:19:04;9.73;;;7.65;;
24096;SDS011;12275;48.550;12.132;2023-05-01T11:21:31;10.55;;;8.43;;
24096;SDS011;12275;48.550;12.132;2023-05-01T11:23:58;10.90;;;7.65;;
24096;SDS011;12275;48.550;12.132;2023-05-01T11:26:24;8.15;;;7.15;;
24096;SDS011;12275;48.550;12.132;2023-05-01T11:28:52;8.52;;;7.47;;
24096;SDS011;12275;48.550;12.132;2023-05-01T11:31:18;10.63;;;7.43;;
24096;SDS011;12275;48.550;12.132;2023-05-01T11:33:45;8.55;;;7.35;;
24096;SDS011;12275;48.550;12.132;2023-05-01T11:36:11;9.90;;;7.53;;
24096;SDS011;12275;48.550;12.132;2023-05-01T11:38:38;10.60;;;8.45;;
24096;SDS011;12275;48.550;12.132;2023-05-01T11:41:13;10.05;;;8.57;;
24096;SDS011;12275;48.550;12.132;2023-05-01T11:46:22;10.90;;;7.38;;
24096;SDS011;12275;48.550;12.132;2023-05-01T11:48:49;9.30;;;7.60;;
24096;SDS011;12275;48.550;12.132;2023-05-01T11:51:15;8.43;;;7.53;;
24096;SDS011;12275;48.550;12.132;2023-05-01T11:53:45;11.10;;;8.23;;
24096;SDS011;12275;48.550;12.132;2023-05-01T11:56:22;9.77;;;7.80;;
24096;SDS011;12275;48.550;12.132;2023-05-01T11:58:48;11.45;;;8.88;;
24096;SDS011;12275;48.550;12.132;2023-05-01T12:01:14;8.45;;;7.55;;
24096;SDS011;12275;48.550;12.132;2023-05-01T12:03:42;11.00;;;7.65;;
24096;SDS011;12275;48.550;12.132;2023-05-01T12:06:11;9.00;;;7.80;;
24096;SDS011;12275;48.550;12.132;2023-05-01T12:08:41;9.38;;;7.97;;
24096;SDS011;12275;48.550;12.132;2023-05-01T12:11:07;12.00;;;7.65;;
24096;SDS011;12275;48.550;12.132;2023-05-01T12:13:34;13.43;;;8.02;;
24096;SDS011;12275;48.550;12.132;2023-05-01T12:16:00;10.20;;;8.77;;
24096;SDS011;12275;48.550;12.132;2023-05-01T12:18:28;10.55;;;8.57;;
24096;SDS011;12275;48.550;12.132;2023-05-01T12:20:54;12.25;;;9.10;;
24096;SDS011;12275;48.550;12.132;2023-05-01T12:23:33;20.65;;;11.45;;
24096;SDS011;12275;48.550;12.132;2023-05-01T12:26:01;15.77;;;10.82;;
24096;SDS011;12275;48.550;12.132;2023-05-01T12:28:27;12.88;;;9.57;;
24096;SDS011;12275;48.550;12.132;2023-05-01T12:30:58;11.77;;;9.48;;
24096;SDS011;12275;48.550;12.132;2023-05-01T12:33:25;10.93;;;9.55;;
24096;SDS011;12275;48.550;12.132;2023-05-01T12:35:51;9.85;;;8.80;;
24096;SDS011;12275;48.550;12.132;2023-05-01T12:38:19;10.43;;;8.38;;
24096;SDS011;12275;48.550;12.132;2023-05-01T12:40:53;9.85;;;7.85;;
24096;SDS011;12275;48.550;12.132;2023-05-01T12:43:19;12.25;;;7.50;;
24096;SDS011;12275;48.550;12.132;2023-05-01T12:45:47;9.32;;;7.80;;
24096;SDS011;12275;48.550;12.132;2023-05-01T12:48:16;12.48;;;8.85;;
24096;SDS011;12275;48.550;12.132;2023-05-01T12:50:42;11.75;;;8.32;;
24096;SDS011;12275;48.550;12.132;2023-05-01T12:53:09;10.43;;;8.05;;
24096;SDS011;12275;48.550;12.132;2023-05-01T12:55:41;12.93;;;9.10;;
24096;SDS011;12275;48.550;12.132;2023-05-01T12:58:09;9.30;;;8.20;;
24096;SDS011;12275;48.550;12.132;2023-05-01T13:00:46;9.77;;;8.23;;
24096;SDS011;12275;48.550;12.132;2023-05-01T13:03:13;8.68;;;7.78;;
24096;SDS011;12275;48.550;12.132;2023-05-01T13:05:54;9.95;;;7.65;;
24096;SDS011;12275;48.550;12.132;2023-05-01T13:08:27;7.63;;;6.53;;
24096;SDS011;12275;48.550;12.132;2023-05-01T13:10:54;8.23;;;7.30;;
24096;SDS011;12275;48.550;12.132;2023-05-01T13:13:27;7.57;;;6.68;;
24096;SDS011;12275;48.550;12.132;2023-05-01T13:15:53;10.48;;;7.68;;
24096;SDS011;12275;48.550;12.132;2023-05-01T13:20:53;9.52;;;8.55;;
24096;SDS011;12275;48.550;12.132;2023-05-01T13:23:19;10.73;;;8.45;;
24096;SDS011;12275;48.550;12.132;2023-05-01T13:25:46;10.15;;;7.85;;
24096;SDS011;12275;48.550;12.132;2023-05-01T13:28:18;10.00;;;9.00;;
24096;SDS011;12275;48.550;12.132;2023-05-01T13:30:44;12.63;;;7.95;;
24096;SDS011;12275;48.550;12.132;2023-05-01T13:33:10;9.13;;;7.82;;
24096;SDS011;12275;48.550;12.132;2023-05-01T13:35:37;8.63;;;7.75;;
24096;SDS011;12275;48.550;12.132;2023-05-01T13:38:04;8.93;;;7.68;;
24096;SDS011;12275;48.550;12.132;2023-05-01T13:40:33;8.82;;;7.95;;
24096;SDS011;12275;48.550;12.132;2023-05-01T13:42:59;9.57;;;7.70;;
24096;SDS011;12275;48.550;12.132;2023-05-01T13:45:25;10.13;;;7.53;;
24096;SDS011;12275;48.550;12.132;2023-05-01T13:47:51;9.38;;;8.43;;
24096;SDS011;12275;48.550;12.132;2023-05-01T13:50:19;9.38;;;8.40;;
24096;SDS011;12275;48.550;12.132;2023-05-01T13:52:47;9.73;;;8.65;;
24096;SDS011;12275;48.550;12.132;2023-05-01T13:55:13;9.85;;;8.70;;
24096;SDS011;12275;48.550;12.132;2023-05-01T13:57:39;9.93;;;8.65;;
24096;SDS011;12275;48.550;12.132;2023-05-01T14:00:07;15.02;;;8.80;;
24096;SDS011;12275;48.550;12.132;2023-05-01T14:02:35;11.13;;;8.70;;
24096;SDS011;12275;48.550;12.132;2023-05-01T14:05:06;10.20;;;8.35;;
24096;SDS011;12275;48.550;12.132;2023-05-01T14:07:33;11.90;;;9.38;;
24096;SDS011;12275;48.550;12.132;2023-05-01T14:10:04;14.95;;;11.70;;
24096;SDS011;12275;48.550;12.132;2023-05-01T14:12:33;15.68;;;11.00;;
24096;SDS011;12275;48.550;12.132;2023-05-01T14:14:59;12.70;;;10.38;;
24096;SDS011;12275;48.550;12.132;2023-05-01T14:17:29;15.35;;;11.32;;
24096;SDS011;12275;48.550;12.132;2023-05-01T14:19:55;18.33;;;10.90;;
24096;SDS011;12275;48.550;12.132;2023-05-01T14:22:21;13.52;;;10.27;;
24096;SDS011;12275;48.550;12.132;2023-05-01T14:24:47;11.45;;;10.30;;
24096;SDS011;12275;48.550;12.132;2023-05-01T14:27:15;13.65;;;9.93;;
24096;SDS011;12275;48.550;12.132;2023-05-01T14:29:41;10.82;;;9.75;;
24096;SDS011;12275;48.550;12.132;2023-05-01T14:32:11;16.40;;;12.10;;
24096;SDS011;12275;48.550;12.132;2023-05-01T14:34:41;13.50;;;10.38;;
24096;SDS011;12275;48.550;12.132;2023-05-01T14:37:10;15.50;;;10.88;;
24096;SDS011;12275;48.550;12.132;2023-05-01T14:39:39;15.70;;;11.40;;
24096;SDS011;12275;48.550;12.132;2023-05-01T14:42:05;15.32;;;11.45;;
24096;SDS011;12275;48.550;12.132;2023-05-01T14:44:31;15.60;;;12.00;;
24096;SDS011;12275;48.550;12.132;2023-05-01T14:46:57;17.13;;;12.05;;
24096;SDS011;12275;48.550;12.132;2023-05-01T14:49:24;16.45;;;12.57;;
24096;SDS011;12275;48.550;12.132;2023-05-01T14:51:51;13.25;;;11.40;;
24096;SDS011;12275;48.550;12.132;2023-05-01T14:54:17;16.00;;;11.85;;
24096;SDS011;12275;48.550;12.132;2023-05-01T14:56:44;13.75;;;12.27;;
24096;SDS011;12275;48.550;12.132;2023-05-01T14:59:10;17.05;;;12.50;;
24096;SDS011;12275;48.550;12.132;2023-05-01T15:01:37;15.13;;;11.60;;